• Join FlightAware (Why Join?)
  • Login
  • US Flag 
05:36PM EDT


 

Airport Tracker/Info


-or-


 

Live Flight TrackerFlight Track Log ✈ AWE1913 ✈ 13-Apr-2013 ✈ KPHL - MYNN / NAS

Flight Track Log - Related Links

Times and Time Zones

All times are in EDT time to prevent confusion due to time zone crossing. See the AWE1913 flight status page for this flight to view local times or setup timezone preferences in your user account.

Time Position Orientation Groundspeed Altitude Reporting Facility
EDT Latitude Longitude Course Direction KTS MPH feet Rate Location/Type
10:48AM 39.8513 -75.2876 216° Southwest 165 190 1,600  Level FlightAware ADS-B
10:48AM 39.8471 -75.2911 213° Southwest 164 189 1,800 2,160 Climbing FlightAware ADS-B
10:48AM 39.8371 -75.2997 213° Southwest 167 192 2,400 1,680 Climbing FlightAware ADS-B
10:48AM 39.8295 -75.3062 213° Southwest 178 205 2,600 1,320 Climbing FlightAware ADS-B
10:48AM 39.8178 -75.3171 216° Southwest 193 222 3,000 1,380 Climbing FlightAware ADS-B
10:49AM 39.8068 -75.3273 215° Southwest 205 236 3,300 1,260 Climbing FlightAware ADS-B
10:49AM 39.8031 -75.3303 212° Southwest 213 245 3,400 720 Climbing FlightAware ADS-B
10:49AM 39.7995 -75.3325 205° Southwest 220 253 3,400 720 Level FlightAware ADS-B
10:49AM 39.7960 -75.3343 202° Southwest 231 266 3,500 660 Climbing FlightAware ADS-B
10:49AM 39.7904 -75.3365 197° South 240 276 3,500 660 Level FlightAware ADS-B
10:49AM 39.7860 -75.3378 193° South 247 284 3,600 1,320 Climbing FlightAware ADS-B
10:49AM 39.7804 -75.3390 189° South 255 293 3,700 1,800 Climbing FlightAware ADS-B
10:49AM 39.7621 -75.3416 186° South 269 310 4,200 2,580 Climbing FlightAware ADS-B
10:50AM 39.7428 -75.3433 184° South 270 311 5,000 2,880 Climbing FlightAware ADS-B
10:50AM 39.7206 -75.3445 182° South 274 315 5,800 2,700 Climbing FlightAware ADS-B
10:50AM 39.7009 -75.3458 183° South 277 319 6,500 3,180 Climbing FlightAware ADS-B
10:50AM 39.6795 -75.3471 183° South 274 315 7,500 3,180 Climbing FlightAware ADS-B
10:51AM 39.6599 -75.3484 183° South 278 320 8,200 2,340 Climbing FlightAware ADS-B
10:51AM 39.6357 -75.3501 183° South 288 331 8,800 2,400 Climbing FlightAware ADS-B
10:51AM 39.6140 -75.3517 183° South 288 331 9,600 2,880 Climbing FlightAware ADS-B
10:52AM 39.5725 -75.3546 183° South 286 329 11,200 2,100 Climbing FlightAware ADS-B
10:52AM 39.5296 -75.3580 183° South 320 368 11,800 1,080 Climbing FlightAware ADS-B
10:53AM 39.4827 -75.3614 183° South 348 400 12,300 1,620 Climbing FlightAware ADS-B
10:53AM 39.4329 -75.3647 183° South 354 407 13,500 2,400 Climbing FlightAware ADS-B
10:54AM 39.3787 -75.3684 183° South 353 406 14,900 2,340 Climbing FlightAware ADS-B
10:54AM 39.3274 -75.3721 183° South 360 414 16,000 1,860 Climbing FlightAware ADS-B
10:55AM 39.2759 -75.3758 183° South 367 422 16,800 900 Climbing FlightAware ADS-B
10:55AM 39.2181 -75.3798 183° South 366 421 17,000 300 Climbing FlightAware ADS-B
10:55AM 39.2090 -75.3807 184° South 365 420 17,000  Level FlightAware ADS-B
10:56AM 39.1573 -75.3882 186° South 366 421 17,000  Level FlightAware ADS-B
10:56AM 39.1047 -75.3962 187° South 365 420 17,000 480 Level FlightAware ADS-B
10:57AM 39.0527 -75.4041 187° South 369 425 17,500 1,860 Climbing FlightAware ADS-B
10:57AM 39.0084 -75.4110 187° South 355 409 18,800 2,700 Climbing FlightAware ADS-B
10:58AM 38.9912 -75.4159 192° South 349 402 19,200 1,680 Climbing FlightAware ADS-B
10:58AM 38.9751 -75.4229 199° South 350 403 19,400 1,140 Climbing FlightAware ADS-B
10:58AM 38.9279 -75.4461 201° Southwest 362 417 20,000 1,440 Climbing FlightAware ADS-B
10:59AM 38.8798 -75.4696 201° Southwest 362 417 20,900 1,500 Climbing FlightAware ADS-B
10:59AM 38.8313 -75.4933 201° Southwest 369 425 21,600 1,320 Climbing FlightAware ADS-B
11:00AM 38.7809 -75.5179 201° Southwest 377 434 22,300 1,500 Climbing FlightAware ADS-B
11:00AM 38.7301 -75.5426 201° Southwest 378 435 23,200 1,560 Climbing FlightAware ADS-B
11:01AM 38.6801 -75.5669 201° Southwest 382 440 23,900 1,260 Climbing FlightAware ADS-B
11:01AM 38.6291 -75.5917 201° Southwest 387 445 24,500 1,200 Climbing FlightAware ADS-B
11:02AM 38.5740 -75.6184 201° Southwest 390 449 25,200 1,260 Climbing FlightAware ADS-B
11:02AM 38.5185 -75.6453 201° Southwest 392 451 25,900 1,200 Climbing FlightAware ADS-B
11:03AM 38.4360 -75.6850 201° Southwest 396 456 26,900 1,020 Climbing FlightAware
11:04AM 38.3670 -75.7180 201° Southwest 403 464 27,500 900 Climbing FlightAware
11:05AM 38.3030 -75.7490 201° Southwest 406 467 28,100 900 Climbing FlightAware
11:05AM 38.2607 -75.7695 201° Southwest 410 472 28,400 1,200 Climbing FlightAware ADS-B
11:05AM 38.2062 -75.7956 201° Southwest 408 470 29,100 1,440 Climbing FlightAware ADS-B
11:06AM 38.1533 -75.8209 201° Southwest 400 460 29,900 1,440 Climbing FlightAware ADS-B
11:06AM 38.1010 -75.8459 201° Southwest 395 455 30,600 1,140 Climbing FlightAware ADS-B
11:07AM 38.0466 -75.8719 201° Southwest 395 455 31,100 1,140 Climbing FlightAware ADS-B
11:08AM 37.9929 -75.8974 201° Southwest 390 449 31,800 840 Climbing FlightAware ADS-B
11:08AM 37.9419 -75.9217 201° Southwest 379 436 32,000 120 Climbing FlightAware ADS-B
11:09AM 37.8470 -75.9670 201° Southwest 362 417 32,000  Level FlightAware
11:10AM 37.7878 -75.9949 200° South 370 426 32,000  Level FlightAware ADS-B
11:10AM 37.7366 -76.0190 200° South 373 429 32,000  Level FlightAware ADS-B
11:11AM 37.6868 -76.0426 201° Southwest 374 430 32,000  Level FlightAware ADS-B
11:11AM 37.6376 -76.0658 200° South 375 432 32,000  Level FlightAware ADS-B
11:12AM 37.5868 -76.0897 200° South 375 432 32,000  Level FlightAware ADS-B
11:12AM 37.5307 -76.1161 200° South 376 433 32,000  Level FlightAware ADS-B
11:13AM 37.4777 -76.1410 200° South 377 434 32,000  Level FlightAware ADS-B
11:13AM 37.4272 -76.1647 200° South 377 434 32,000  Level FlightAware ADS-B
11:14AM 37.3762 -76.1885 200° South 377 434 32,000  Level FlightAware ADS-B
11:14AM 37.3264 -76.2118 200° South 378 435 32,000  Level FlightAware ADS-B
11:15AM 37.2760 -76.2353 200° South 379 436 32,000  Level FlightAware ADS-B
11:15AM 37.2222 -76.2604 200° South 380 437 32,000  Level FlightAware ADS-B
11:16AM 37.1713 -76.2842 200° South 381 438 32,000  Level FlightAware ADS-B
11:17AM 37.1280 -76.3040 200° South 380 437 32,000  Level FlightAware
11:17AM 37.0904 -76.3217 201° Southwest 382 440 32,000  Level FlightAware ADS-B
11:17AM 37.0490 -76.3400 199° South 381 438 32,000  Level FlightAware
11:18AM 36.9930 -76.3660 200° South 381 438 32,000  Level FlightAware
11:19AM 36.9370 -76.3920 200° South 381 438 32,000  Level FlightAware
11:20AM 36.8020 -76.4310 193° South 32,000  Level FlightAware
11:20AM 36.7210 -76.4570 194° South 386 444 32,000  Level FlightAware
11:21AM 36.6660 -76.4740 194° South 386 444 32,000  Level FlightAware
11:22AM 36.6070 -76.4930 194° South 386 444 32,000  Level FlightAware
11:22AM 36.5490 -76.5110 194° South 386 444 32,000  Level FlightAware
11:23AM 36.4900 -76.5290 194° South 386 444 32,000  Level FlightAware
11:24AM 36.4310 -76.5480 195° South 386 444 32,000  Level FlightAware
11:25AM 36.3570 -76.5700 193° South 386 444 32,000  Level FlightAware
11:25AM 36.2830 -76.5930 194° South 386 444 32,000  Level FlightAware
11:26AM 36.2100 -76.6160 194° South 386 444 32,000  Level FlightAware
11:27AM 36.1510 -76.6340 194° South 386 444 32,000  Level FlightAware
11:28AM 36.0920 -76.6520 194° South 386 444 32,000  Level FlightAware
11:28AM 36.0330 -76.6700 194° South 386 444 32,000  Level FlightAware
11:29AM 35.9740 -76.6890 195° South 386 444 32,000  Level FlightAware
11:30AM 35.9150 -76.7070 194° South 386 444 32,000  Level FlightAware
11:30AM 35.8420 -76.7290 194° South 386 444 32,000  Level FlightAware
11:31AM 35.6389 -76.8008 194° South 395 455 32,000  Level Washington Center
11:32AM 35.5486 -76.8328 196° South 389 448 32,000  Level Washington Center
11:33AM 35.4397 -76.8667 194° South 389 448 32,000  Level Washington Center
11:34AM 35.3331 -76.8981 193° South 394 453 32,000  Level Washington Center
11:35AM 35.2306 -76.9322 195° South 394 453 32,000  Level Washington Center
11:36AM 35.1217 -76.9633 193° South 394 453 32,000  Level Washington Center
11:37AM 35.0064 -77.0019 195° South 394 453 32,000  Level Washington Center
11:38AM 34.9142 -77.0308 194° South 394 453 32,000  Level Washington Center
11:39AM 34.8075 -77.0667 195° South 394 453 32,000  Level Washington Center
11:40AM 34.7006 -77.0978 193° South 394 453 32,000  Level Washington Center
11:41AM 34.5958 -77.1286 194° South 394 453 32,000  Level Washington Center
11:42AM 34.4892 -77.1619 194° South 394 453 32,000  Level Washington Center
11:43AM 34.3844 -77.1925 194° South 394 453 32,000  Level Washington Center
11:44AM 34.2775 -77.2256 194° South 394 453 32,000  Level Washington Center
11:48AM 33.8628 -77.3506 194° South 409 471 32,000  Level Jacksonville Center
11:49AM 33.7578 -77.3797 193° South 421 484 32,000  Level Jacksonville Center
11:50AM 33.6528 -77.4114 194° South 408 470 32,000  Level Jacksonville Center
11:51AM 33.5478 -77.4453 195° South 408 470 32,000  Level Jacksonville Center
11:52AM 33.4447 -77.4764 194° South 388 447 32,000 -60 Level Jacksonville Center
11:53AM 33.3417 -77.5050 193° South 388 447 31,900 -60 Descending Jacksonville Center
11:54AM 33.2364 -77.5339 193° South 390 449 31,900  Level Jacksonville Center
11:55AM 33.1419 -77.5667 196° South 408 470 32,000  Climbing Jacksonville Center
11:56AM 33.0389 -77.5975 194° South 408 470 32,000  Level Jacksonville Center
11:57AM 32.9336 -77.6261 193° South 413 475 32,000  Level Jacksonville Center
11:58AM 32.8283 -77.6569 194° South 413 475 32,000  Level Jacksonville Center
11:59AM 32.7231 -77.6853 193° South 413 475 32,000 -60 Level Jacksonville Center
12:00PM 32.6161 -77.7186 195° South 413 475 31,900  Descending Jacksonville Center
12:01PM 32.5086 -77.7469 193° South 413 475 32,000  Climbing Jacksonville Center
12:02PM 32.4014 -77.7775 194° South 418 481 32,000  Level Jacksonville Center
12:03PM 32.2919 -77.8108 194° South 418 481 32,000  Level Jacksonville Center
12:04PM 32.1847 -77.8411 193° South 407 468 32,000 -60 Level Jacksonville Center
12:05PM 32.0775 -77.8764 196° South 407 468 31,900  Descending Jacksonville Center
12:06PM 31.9706 -77.9117 196° South 407 468 32,000  Climbing Jacksonville Center
12:07PM 31.8631 -77.9372 191° South 407 468 32,000  Level Jacksonville Center
12:08PM 31.7556 -77.9650 192° South 407 468 32,000  Level Jacksonville Center
12:09PM 31.6483 -77.9997 195° South 407 468 32,000  Level Jacksonville Center
12:10PM 31.5408 -78.0275 192° South 398 458 32,000  Level Jacksonville Center
12:11PM 31.4336 -78.0597 194° South 398 458 32,000  Level Jacksonville Center
12:12PM 31.3239 -78.0875 192° South 398 458 32,000  Level Jacksonville Center
12:13PM 31.2144 -78.1147 192° South 398 458 32,000  Level Jacksonville Center
12:14PM 31.1072 -78.1517 196° South 405 466 32,000 -60 Level Jacksonville Center
12:15PM 30.9811 -78.1872 194° South 416 479 31,900  Descending Jacksonville Center
12:16PM 30.8803 -78.2214 196° South 398 458 32,000  Climbing Jacksonville Center
12:17PM 30.7686 -78.2508 193° South 411 473 32,000 -60 Level Jacksonville Center
12:18PM 30.6592 -78.2828 194° South 418 481 31,900  Descending Jacksonville Center
12:19PM 30.5578 -78.3119 194° South 395 455 32,000  Climbing Jacksonville Center
12:20PM 30.3456 -78.3578 191° South 419 482 32,000  Level Miami Center
12:21PM 30.2328 -78.3683 185° South 419 482 32,000  Level Miami Center
12:22PM 30.1183 -78.3500 172° South 410 472 32,000  Level Miami Center
12:23PM 30.0144 -78.3150 164° South 424 488 32,000  Level Miami Center
12:24PM 29.9044 -78.2681 160° South 420 483 32,000  Level Miami Center
12:25PM 29.7922 -78.2283 163° South 425 489 32,000  Level Miami Center
12:26PM 29.6758 -78.1861 163° South 425 489 32,000  Level Miami Center
12:27PM 29.5678 -78.1492 163° South 425 489 32,000  Level Miami Center
12:28PM 29.4511 -78.1072 163° South 425 489 32,000  Level Miami Center
12:29PM 29.3411 -78.0656 162° South 425 489 32,000  Level Miami Center
12:30PM 29.2244 -78.0261 164° South 425 489 32,000 -60 Level Miami Center
12:31PM 29.1183 -77.9894 163° South 418 481 31,900 -60 Descending Miami Center
12:32PM 28.9975 -77.9669 171° South 426 490 31,900  Level Miami Center
12:33PM 28.8747 -77.9467 172° South 439 505 32,000  Climbing Miami Center
12:34PM 28.7536 -77.9264 172° South 440 506 32,000  Level Miami Center
12:35PM 28.6350 -77.9111 174° South 440 506 32,000  Level Miami Center
12:36PM 28.5056 -77.8911 172° South 449 517 32,000  Level Miami Center
12:37PM 28.4014 -77.8783 174° South 438 504 32,000  Level Miami Center
12:38PM 28.2783 -77.8608 173° South 438 504 32,000 -60 Level Miami Center
12:39PM 28.1614 -77.8408 171° South 433 498 31,900 -60 Descending Miami Center
12:40PM 28.0531 -77.8258 173° South 429 494 31,900  Level Miami Center
12:41PM 27.9217 -77.8083 173° South 434 499 32,000  Climbing Miami Center
12:42PM 27.8047 -77.7908 172° South 434 499 32,000  Level Miami Center
12:43PM 27.6900 -77.7733 172° South 431 496 32,000  Level Miami Center
12:44PM 27.5733 -77.7561 173° South 425 489 32,000 -240 Level Miami Center
12:45PM 27.4542 -77.7389 173° South 425 489 31,600 -660 Descending Miami Center
12:46PM 27.3375 -77.7097 167° South 425 489 30,700 -960 Descending Miami Center
12:47PM 27.2183 -77.7114 181° South 425 489 29,700 -1,020 Descending Miami Center
12:48PM 27.1017 -77.6919 172° South 425 489 28,700 -1,020 Descending Miami Center
12:49PM 26.9806 -77.6747 173° South 431 496 27,700 -960 Descending Miami Center
12:50PM 26.8636 -77.6575 173° South 436 502 26,800 -960 Descending Miami Center
12:51PM 26.7447 -77.6406 173° South 436 502 25,800 -1,020 Descending Miami Center
12:52PM 26.6194 -77.6303 176° South 423 487 24,800 -1,020 Descending Miami Center
12:53PM 26.5089 -77.6017 167° South 418 481 23,800 -1,020 Descending Miami Center
12:54PM 26.3939 -77.5964 178° South 418 481 22,800 -960 Descending Miami Center
12:55PM 26.2833 -77.5747 170° South 413 475 21,900 -1,380 Descending Miami Center
12:56PM 26.1706 -77.5533 170° South 407 468 20,100 1,020 Descending Miami Center
12:57PM 26.0619 -77.5411 174° South 402 463 24,000 -1,860 Climbing Miami Center
12:58PM 25.9553 -77.5244 172° South 402 463 16,400  Descending Miami Center
12:59PM 25.8553 -77.5100 173° South 391 450 24,000 -1,500 Climbing Miami Center
01:00PM 25.7569 -77.4978 174° South 373 429 13,400 -6,600 Descending Miami Center
01:01PM 25.6608 -77.5158 190° South 351 404 10,800 -2,640 Descending Miami Center
01:03PM 25.5425 -77.4882 168° South  Level FlightAware Approximate
01:10PM 25.0333 -77.4500 170° South  Level FlightAware Approximate
01:11PM 25.0390 -77.4662 170° South  Level Estimated
01:12PM 25.0390 -77.4662 170° South  Level Estimated
01:13PM 25.0390 -77.4662 170° South  Level Estimated